createdAt,value
2019-05-09T00:00:06.497Z,99.90
2019-05-09T00:02:16.873Z,99.90
2019-05-09T00:04:22.973Z,99.90
2019-05-09T00:06:26.493Z,99.90
2019-05-09T00:08:30.411Z,99.90
2019-05-09T00:10:39.483Z,99.90
2019-05-09T00:12:40.215Z,99.90
2019-05-09T00:14:45.016Z,99.90
2019-05-09T00:16:53.146Z,99.90
2019-05-09T00:19:03.236Z,99.90
2019-05-09T00:21:16.928Z,99.90
2019-05-09T00:23:23.987Z,99.90
2019-05-09T00:25:40.430Z,99.90
2019-05-09T00:27:45.070Z,99.90
2019-05-09T00:29:58.351Z,99.90
2019-05-09T00:32:34.784Z,99.90
2019-05-09T00:34:53.142Z,99.90
2019-05-09T00:37:08.457Z,99.90
2019-05-09T00:39:13.369Z,99.90
2019-05-09T00:41:17.571Z,99.90
2019-05-09T00:43:24.343Z,99.90
2019-05-09T00:45:48.967Z,99.90
2019-05-09T00:47:58.978Z,99.90
2019-05-09T00:50:06.238Z,99.90
2019-05-09T00:52:10.373Z,99.90
2019-05-09T00:54:14.549Z,99.90
2019-05-09T00:56:23.736Z,99.90
2019-05-09T00:58:37.358Z,99.90
2019-05-09T01:00:45.665Z,99.90
2019-05-09T01:02:54.403Z,99.90
2019-05-09T01:05:00.070Z,99.90
2019-05-09T01:07:10.219Z,99.90
2019-05-09T01:09:15.812Z,99.90
2019-05-09T01:11:24.214Z,99.90
2019-05-09T01:13:33.896Z,99.90
2019-05-09T01:15:44.030Z,99.90
2019-05-09T01:17:53.623Z,99.90
2019-05-09T01:20:03.420Z,99.90
2019-05-09T01:22:07.813Z,99.90
2019-05-09T01:24:14.017Z,99.90
2019-05-09T01:26:18.330Z,99.90
2019-05-09T01:28:35.027Z,99.90
2019-05-09T01:30:44.697Z,99.90
2019-05-09T01:33:21.092Z,99.90
2019-05-09T01:35:25.590Z,99.90
2019-05-09T01:37:35.937Z,99.90
2019-05-09T01:39:40.000Z,99.90
2019-05-09T01:41:48.528Z,99.90
2019-05-09T01:43:53.690Z,99.90
2019-05-09T01:45:58.221Z,99.90
2019-05-09T01:48:05.310Z,99.90
2019-05-09T01:50:11.338Z,99.90
2019-05-09T01:52:18.167Z,99.90
2019-05-09T01:54:23.750Z,99.90
2019-05-09T01:56:28.069Z,99.90
2019-05-09T01:58:37.589Z,99.90
2019-05-09T02:00:43.604Z,99.90
2019-05-09T02:02:50.965Z,99.90
2019-05-09T02:04:55.306Z,99.90
2019-05-09T02:07:04.380Z,99.90
2019-05-09T02:09:15.489Z,99.90
2019-05-09T02:11:39.412Z,99.90
2019-05-09T02:13:36.157Z,99.90
2019-05-09T02:16:03.381Z,99.90
2019-05-09T02:18:16.419Z,99.90
2019-05-09T02:20:20.559Z,99.90
2019-05-09T02:22:34.532Z,99.90
2019-05-09T02:24:43.997Z,99.90
2019-05-09T02:26:47.752Z,99.90
2019-05-09T02:28:53.985Z,99.90
2019-05-09T02:30:58.203Z,99.90
2019-05-09T02:33:05.095Z,99.90
2019-05-09T02:35:10.825Z,99.90
2019-05-09T02:37:18.547Z,99.90
2019-05-09T02:39:23.735Z,99.90
2019-05-09T02:41:28.749Z,99.90
2019-05-09T02:43:34.423Z,99.90
2019-05-09T02:45:49.328Z,99.90
2019-05-09T02:47:51.474Z,99.90
2019-05-09T02:50:04.585Z,99.90
2019-05-09T02:52:09.079Z,99.90
2019-05-09T02:54:22.444Z,99.90
2019-05-09T02:56:29.434Z,99.90
2019-05-09T02:58:48.399Z,99.90
2019-05-09T03:01:08.425Z,99.90
2019-05-09T03:03:31.011Z,99.90
2019-05-09T03:05:38.110Z,99.90
2019-05-09T03:08:00.706Z,99.90
2019-05-09T03:10:08.902Z,99.90
2019-05-09T03:12:30.353Z,99.90
2019-05-09T03:14:28.417Z,99.90
2019-05-09T03:16:33.796Z,99.90
2019-05-09T03:18:49.339Z,99.90
2019-05-09T03:21:10.616Z,99.90
2019-05-09T03:23:14.808Z,99.90
2019-05-09T03:25:21.813Z,99.90
2019-05-09T03:27:30.418Z,99.90
2019-05-09T03:29:44.876Z,99.90
2019-05-09T03:31:52.258Z,99.90
2019-05-09T03:33:59.484Z,99.90
2019-05-09T03:36:02.226Z,99.90
2019-05-09T03:38:09.222Z,99.90
2019-05-09T03:40:18.050Z,99.90
2019-05-09T03:42:39.696Z,99.90
2019-05-09T03:44:32.400Z,99.90
2019-05-09T03:46:51.784Z,99.90
2019-05-09T03:49:01.541Z,99.90
2019-05-09T03:51:07.980Z,99.90
2019-05-09T03:53:15.745Z,99.90
2019-05-09T03:55:28.111Z,99.90
2019-05-09T03:57:37.286Z,99.90
2019-05-09T03:59:43.738Z,99.90
2019-05-09T04:01:51.027Z,99.90
2019-05-09T04:03:58.371Z,99.90
2019-05-09T04:06:09.966Z,99.90
2019-05-09T04:08:18.353Z,99.90
2019-05-09T04:10:28.207Z,99.90
2019-05-09T04:12:52.796Z,99.90
2019-05-09T04:14:47.954Z,99.90
2019-05-09T04:16:53.478Z,99.90
2019-05-09T04:19:00.547Z,99.90
2019-05-09T04:21:10.909Z,99.90
2019-05-09T04:26:54.648Z,99.90
2019-05-09T04:30:21.797Z,99.90
2019-05-09T04:31:57.503Z,99.90
2019-05-09T04:34:04.940Z,99.90
2019-05-09T04:36:11.692Z,99.90
2019-05-09T04:38:18.542Z,99.90
2019-05-09T04:40:22.957Z,99.90
2019-05-09T04:42:40.384Z,99.90
2019-05-09T04:44:58.879Z,99.90
2019-05-09T04:47:05.324Z,99.90
2019-05-09T04:49:12.396Z,99.90
2019-05-09T04:51:17.995Z,99.90
2019-05-09T04:53:22.522Z,99.90
2019-05-09T04:55:30.103Z,99.90
2019-05-09T04:57:35.460Z,99.90
2019-05-09T04:59:39.824Z,99.90
2019-05-09T05:02:12.214Z,99.90
2019-05-09T05:04:18.681Z,99.90
2019-05-09T05:06:28.047Z,99.90
2019-05-09T05:08:37.573Z,99.90
2019-05-09T05:10:47.764Z,99.90
2019-05-09T05:12:52.144Z,99.90
2019-05-09T05:14:58.199Z,99.90
2019-05-09T05:17:07.345Z,99.90
2019-05-09T05:19:11.518Z,99.90
2019-05-09T05:21:15.705Z,99.90
2019-05-09T05:23:27.574Z,99.90
2019-05-09T05:25:33.667Z,99.90
2019-05-09T05:27:38.258Z,99.90
2019-05-09T05:31:50.934Z,99.90
2019-05-09T05:34:27.435Z,99.90
2019-05-09T05:36:34.368Z,99.90
2019-05-09T05:38:38.193Z,99.90
2019-05-09T05:40:45.970Z,99.90
2019-05-09T05:42:47.914Z,99.90
2019-05-09T05:44:51.699Z,99.90
2019-05-09T05:47:18.059Z,98.20
2019-05-09T05:49:22.201Z,97.30
2019-05-09T05:51:27.727Z,96.30
2019-05-09T05:53:31.585Z,95.90
2019-05-09T05:55:37.802Z,94.70
2019-05-09T05:57:41.033Z,94.10
2019-05-09T05:59:44.898Z,93.90
2019-05-09T06:01:49.069Z,94.00
2019-05-09T06:04:07.488Z,93.70
2019-05-09T06:06:12.708Z,93.70
2019-05-09T06:08:19.251Z,94.20
2019-05-09T06:10:23.159Z,94.30
2019-05-09T06:12:27.658Z,94.80
2019-05-09T06:14:31.932Z,95.40
2019-05-09T06:16:37.720Z,95.90
2019-05-09T06:18:41.316Z,96.70
2019-05-09T06:20:48.626Z,97.10
2019-05-09T06:22:51.763Z,97.50
2019-05-09T06:24:55.599Z,98.70
2019-05-09T06:27:01.094Z,99.90
2019-05-09T06:29:04.940Z,99.90
2019-05-09T06:31:08.720Z,99.90
2019-05-09T06:33:12.508Z,99.90
2019-05-09T06:35:22.597Z,99.90
2019-05-09T06:37:27.691Z,99.90
2019-05-09T06:39:37.814Z,99.90
2019-05-09T06:41:42.042Z,99.90
2019-05-09T06:43:49.622Z,99.90
2019-05-09T06:46:09.032Z,99.90
2019-05-09T06:48:14.642Z,99.90
2019-05-09T06:50:27.616Z,99.90
2019-05-09T06:52:37.851Z,99.90
2019-05-09T06:54:48.565Z,99.90
2019-05-09T06:56:55.316Z,99.90
2019-05-09T06:59:04.896Z,99.90
2019-05-09T07:01:48.173Z,99.90
2019-05-09T07:03:53.500Z,99.90
2019-05-09T07:06:13.021Z,99.90
2019-05-09T07:08:22.413Z,99.90
2019-05-09T07:10:28.395Z,99.90
2019-05-09T07:12:33.607Z,99.90
2019-05-09T07:14:41.823Z,99.90
2019-05-09T07:16:45.108Z,99.90
2019-05-09T07:18:57.934Z,99.90
2019-05-09T07:21:08.511Z,99.90
2019-05-09T07:23:17.888Z,99.90
2019-05-09T07:25:40.673Z,99.90
2019-05-09T07:27:58.488Z,99.90
2019-05-09T07:30:07.674Z,99.90
2019-05-09T07:32:21.550Z,99.90
2019-05-09T07:34:47.388Z,99.90
2019-05-09T07:36:55.292Z,99.90
2019-05-09T07:39:17.995Z,99.90
2019-05-09T07:41:34.760Z,99.90
2019-05-09T07:43:47.789Z,99.90
2019-05-09T07:46:09.284Z,99.90
2019-05-09T07:48:28.553Z,99.90
2019-05-09T07:50:40.070Z,99.90
2019-05-09T07:52:58.164Z,99.90
2019-05-09T07:55:05.131Z,99.90
2019-05-09T07:57:23.381Z,99.90
2019-05-09T08:02:03.389Z,99.90
2019-05-09T08:04:40.539Z,99.90
2019-05-09T08:06:50.175Z,99.90
2019-05-09T08:09:05.173Z,99.90
2019-05-09T08:11:37.621Z,99.90
2019-05-09T08:13:57.676Z,99.90
2019-05-09T08:16:14.503Z,99.90
2019-05-09T08:18:20.064Z,99.90
2019-05-09T08:20:27.666Z,99.90
2019-05-09T08:22:40.831Z,99.90
2019-05-09T08:24:48.835Z,99.90
2019-05-09T08:26:58.897Z,99.90
2019-05-09T08:29:11.553Z,99.90
2019-05-09T08:31:24.615Z,99.90
2019-05-09T08:33:38.123Z,99.90
2019-05-09T08:35:49.854Z,99.90
2019-05-09T08:37:58.253Z,99.90
2019-05-09T08:40:07.986Z,99.90
2019-05-09T08:42:23.319Z,99.90
2019-05-09T08:44:37.916Z,99.90
2019-05-09T08:46:58.373Z,99.60
2019-05-09T08:49:28.682Z,97.50
2019-05-09T08:52:05.919Z,94.60
2019-05-09T08:53:54.232Z,95.90
2019-05-09T08:55:58.186Z,95.70
2019-05-09T08:58:07.774Z,94.30
2019-05-09T09:00:22.697Z,93.90
2019-05-09T09:02:28.138Z,93.60
2019-05-09T09:06:38.465Z,92.10
2019-05-09T09:08:48.710Z,92.40
2019-05-09T09:10:57.670Z,90.60
2019-05-09T09:13:08.775Z,90.80
2019-05-09T09:15:17.807Z,89.10
2019-05-09T09:17:32.537Z,89.30
2019-05-09T09:19:39.719Z,88.70
2019-05-09T09:21:49.713Z,88.20
2019-05-09T09:23:59.814Z,87.00
2019-05-09T09:26:18.333Z,85.80
2019-05-09T09:28:27.674Z,84.40
2019-05-09T09:30:42.951Z,83.60
2019-05-09T09:33:14.038Z,82.70
2019-05-09T09:35:18.778Z,81.80
2019-05-09T09:37:44.953Z,81.50
2019-05-09T09:39:44.470Z,82.20
2019-05-09T09:42:00.567Z,82.90
2019-05-09T09:44:13.657Z,80.60
2019-05-09T09:46:28.566Z,78.60
2019-05-09T09:48:40.447Z,80.30
2019-05-09T09:50:57.986Z,81.70
2019-05-09T09:53:18.395Z,82.20
2019-05-09T09:55:44.135Z,82.60
2019-05-09T09:58:19.187Z,81.80
2019-05-09T10:01:31.793Z,81.40
2019-05-09T10:03:58.077Z,79.80
2019-05-09T10:06:53.279Z,78.60
2019-05-09T10:15:38.487Z,74.70
2019-05-09T10:21:43.916Z,74.50
2019-05-09T10:24:01.275Z,72.50
2019-05-09T10:27:14.732Z,70.30
2019-05-09T10:33:37.559Z,67.30
2019-05-09T10:35:47.993Z,67.30
2019-05-09T10:37:58.858Z,64.40
2019-05-09T10:40:12.847Z,64.10
2019-05-09T10:42:38.949Z,65.10
2019-05-09T10:44:52.980Z,65.10
2019-05-09T10:47:13.568Z,66.00
2019-05-09T10:49:22.542Z,66.80
2019-05-09T10:51:28.496Z,66.80
2019-05-09T10:53:38.863Z,68.10
2019-05-09T10:55:52.450Z,66.60
2019-05-09T10:58:03.891Z,65.80
2019-05-09T11:00:25.154Z,65.20
2019-05-09T11:02:34.509Z,63.40
2019-05-09T11:04:54.052Z,63.40
2019-05-09T11:07:02.649Z,63.10
2019-05-09T11:09:13.608Z,62.60
2019-05-09T11:11:18.509Z,62.20
2019-05-09T11:13:31.681Z,61.50
2019-05-09T11:15:41.112Z,62.60
2019-05-09T11:17:50.876Z,59.90
2019-05-09T11:19:55.084Z,59.50
2019-05-09T11:22:08.191Z,58.70
2019-05-09T11:24:45.682Z,59.40
2019-05-09T11:26:33.245Z,59.80
2019-05-09T11:28:42.312Z,59.30
2019-05-09T11:30:51.829Z,60.40
2019-05-09T11:33:02.828Z,59.30
2019-05-09T11:35:22.534Z,60.20
2019-05-09T11:37:48.077Z,59.90
2019-05-09T11:40:13.766Z,59.40
2019-05-09T11:42:28.571Z,59.40
2019-05-09T11:44:43.122Z,58.70
2019-05-09T11:56:08.166Z,56.20
2019-05-09T11:57:27.193Z,55.60
2019-05-09T11:59:01.344Z,56.40
2019-05-09T12:01:51.492Z,56.00
2019-05-09T12:03:54.696Z,55.90
2019-05-09T12:07:10.905Z,55.70
2019-05-09T12:09:30.151Z,55.70
2019-05-09T12:11:54.704Z,55.20
2019-05-09T12:17:12.499Z,54.20
2019-05-09T12:19:48.763Z,54.50
2019-05-09T12:21:58.415Z,55.10
2019-05-09T12:24:09.029Z,56.20
2019-05-09T12:26:17.941Z,56.50
2019-05-09T12:28:21.866Z,57.30
2019-05-09T12:30:28.288Z,56.80
2019-05-09T12:32:38.438Z,55.90
2019-05-09T12:34:41.948Z,55.80
2019-05-09T12:36:49.539Z,55.90
2019-05-09T12:38:53.304Z,55.50
2019-05-09T12:41:00.575Z,55.50
2019-05-09T12:43:03.261Z,55.10
2019-05-09T12:45:12.034Z,54.80
2019-05-09T12:47:19.718Z,54.40
2019-05-09T12:49:24.073Z,54.00
2019-05-09T12:51:28.402Z,52.40
2019-05-09T12:53:32.528Z,52.30
2019-05-09T12:55:38.473Z,52.00
2019-05-09T12:57:42.317Z,50.60
2019-05-09T12:59:52.672Z,51.20
2019-05-09T13:01:58.079Z,52.10
2019-05-09T13:04:09.499Z,51.60
2019-05-09T13:06:13.166Z,51.00
2019-05-09T13:08:32.100Z,51.10
2019-05-09T13:10:42.121Z,49.80
2019-05-09T13:12:48.871Z,50.10
2019-05-09T13:14:57.992Z,50.70
2019-05-09T13:17:14.333Z,49.70
2019-05-09T13:19:20.628Z,50.10
2019-05-09T13:21:27.862Z,50.40
2019-05-09T13:23:30.522Z,50.30
2019-05-09T13:25:34.355Z,50.00
2019-05-09T13:27:38.980Z,50.10
2019-05-09T13:29:42.949Z,49.80
2019-05-09T13:31:48.254Z,49.50
2019-05-09T13:33:52.281Z,50.10
2019-05-09T13:35:58.366Z,48.40
2019-05-09T13:38:01.631Z,48.30
2019-05-09T13:40:05.683Z,48.30
2019-05-09T13:42:11.303Z,48.00
2019-05-09T13:44:22.215Z,48.00
2019-05-09T13:46:28.289Z,47.80
2019-05-09T13:48:56.280Z,48.40
2019-05-09T13:50:38.154Z,48.40
2019-05-09T13:52:42.336Z,48.20
2019-05-09T13:54:48.246Z,48.20
2019-05-09T13:56:57.552Z,49.10
2019-05-09T14:01:02.930Z,48.40
2019-05-09T14:03:08.092Z,49.20
2019-05-09T14:05:12.308Z,49.80
2019-05-09T14:07:19.345Z,50.30
2019-05-09T14:09:21.973Z,50.10
2019-05-09T14:11:28.871Z,49.60
2019-05-09T14:13:31.281Z,50.40
2019-05-09T14:15:35.152Z,51.00
2019-05-09T14:17:49.174Z,51.50
2019-05-09T14:19:46.735Z,52.20
2019-05-09T14:21:50.344Z,53.10
2019-05-09T14:24:06.502Z,53.90
2019-05-09T14:26:00.004Z,54.40
2019-05-09T14:28:08.345Z,55.40
2019-05-09T14:30:12.205Z,56.10
2019-05-09T14:32:15.994Z,56.40
2019-05-09T14:34:19.963Z,57.00
2019-05-09T14:36:27.616Z,57.10
2019-05-09T14:38:30.906Z,57.10
2019-05-09T14:40:34.791Z,57.50
2019-05-09T14:42:39.519Z,57.60
2019-05-09T14:44:47.392Z,58.00
2019-05-09T14:46:51.899Z,58.40
2019-05-09T14:48:59.052Z,58.50
2019-05-09T14:51:09.463Z,59.20
2019-05-09T14:53:13.687Z,59.20
2019-05-09T14:55:23.558Z,59.80
2019-05-09T14:57:28.857Z,59.60
2019-05-09T14:59:41.509Z,59.70
2019-05-09T15:01:59.544Z,59.70
2019-05-09T15:04:09.012Z,59.50
2019-05-09T15:06:12.734Z,59.30
2019-05-09T15:08:18.073Z,59.60
2019-05-09T15:10:28.196Z,59.70
2019-05-09T15:12:32.177Z,58.90
2019-05-09T15:14:47.915Z,59.60
2019-05-09T15:16:49.569Z,58.70
2019-05-09T15:18:55.402Z,58.80
2019-05-09T15:20:59.366Z,59.00
2019-05-09T15:23:03.471Z,58.70
2019-05-09T15:25:19.557Z,59.10
2019-05-09T15:27:31.776Z,59.40
2019-05-09T15:29:48.498Z,59.40
2019-05-09T15:31:54.803Z,59.30
2019-05-09T15:33:57.547Z,58.70
2019-05-09T15:36:04.600Z,59.20
2019-05-09T15:38:08.776Z,59.90
2019-05-09T15:40:17.688Z,60.70
2019-05-09T15:42:23.653Z,60.40
2019-05-09T15:44:30.587Z,60.60
2019-05-09T15:46:47.010Z,59.70
2019-05-09T15:48:55.200Z,60.00
2019-05-09T15:50:59.206Z,60.30
2019-05-09T15:53:05.037Z,61.20
2019-05-09T15:55:18.041Z,61.20
2019-05-09T15:57:22.081Z,61.30
2019-05-09T15:59:29.282Z,61.40
2019-05-09T16:01:33.289Z,61.20
2019-05-09T16:03:40.659Z,61.30
2019-05-09T16:05:48.014Z,61.50
2019-05-09T16:07:52.154Z,61.90
2019-05-09T16:09:58.034Z,61.40
2019-05-09T16:12:01.766Z,61.50
2019-05-09T16:14:07.570Z,61.30
2019-05-09T16:16:11.323Z,61.00
2019-05-09T16:18:15.159Z,61.20
2019-05-09T16:20:36.062Z,61.10
2019-05-09T16:22:24.524Z,61.10
2019-05-09T16:24:28.384Z,60.50
2019-05-09T16:26:32.237Z,60.90
2019-05-09T16:28:37.911Z,59.70
2019-05-09T16:30:41.776Z,59.20
2019-05-09T16:32:47.860Z,59.20
2019-05-09T16:34:51.135Z,58.80
2019-05-09T16:36:54.987Z,57.70
2019-05-09T16:38:58.936Z,58.30
2019-05-09T16:41:02.865Z,58.30
2019-05-09T16:43:09.068Z,57.90
2019-05-09T16:45:12.296Z,57.80
2019-05-09T16:47:21.697Z,58.10
2019-05-09T16:49:26.029Z,58.20
2019-05-09T16:51:28.551Z,58.60
2019-05-09T16:53:34.893Z,59.20
2019-05-09T16:55:39.679Z,59.60
2019-05-09T16:57:43.768Z,60.20
2019-05-09T16:59:47.890Z,61.00
2019-05-09T17:01:51.848Z,61.20
2019-05-09T17:03:57.561Z,62.20
2019-05-09T17:06:01.615Z,63.30
2019-05-09T17:08:07.991Z,64.10
2019-05-09T17:10:11.311Z,64.70
2019-05-09T17:12:15.450Z,65.20
2019-05-09T17:14:19.515Z,65.60
2019-05-09T17:16:23.375Z,66.10
2019-05-09T17:18:28.353Z,66.70
2019-05-09T17:20:41.865Z,67.20
2019-05-09T17:23:11.646Z,68.30
2019-05-09T17:25:09.033Z,68.70
2019-05-09T17:27:12.812Z,69.10
2019-05-09T17:29:18.509Z,69.20
2019-05-09T17:31:27.400Z,69.30
2019-05-09T17:33:33.214Z,69.70
2019-05-09T17:35:38.586Z,69.40
2019-05-09T17:37:42.653Z,69.20
2019-05-09T17:39:46.768Z,69.30
2019-05-09T17:41:50.555Z,69.50
2019-05-09T17:43:54.331Z,69.60
2019-05-09T17:45:58.664Z,70.00
2019-05-09T17:48:02.556Z,70.30
2019-05-09T17:50:07.837Z,70.40
2019-05-09T17:52:11.650Z,71.10
2019-05-09T17:54:15.425Z,70.70
2019-05-09T17:56:22.359Z,71.70
2019-05-09T17:58:32.539Z,72.40
2019-05-09T18:00:32.243Z,73.00
2019-05-09T18:02:38.421Z,73.40
2019-05-09T18:04:41.655Z,74.30
2019-05-09T18:06:45.650Z,75.10
2019-05-09T18:08:49.511Z,75.10
2019-05-09T18:10:53.302Z,70.30
2019-05-09T18:12:58.808Z,70.60
2019-05-09T18:17:10.779Z,62.60
2019-05-09T18:19:14.560Z,62.20
2019-05-09T18:21:18.460Z,63.70
2019-05-09T18:23:23.605Z,62.60
2019-05-09T18:25:27.439Z,61.40
2019-05-09T18:27:31.364Z,62.00
2019-05-09T18:29:35.242Z,63.70
2019-05-09T18:31:54.086Z,65.30
2019-05-09T18:34:02.049Z,66.40
2019-05-09T18:36:05.907Z,68.20
2019-05-09T18:38:17.417Z,69.80
2019-05-09T18:40:21.582Z,71.70
2019-05-09T18:42:38.556Z,73.40
2019-05-09T18:44:42.495Z,75.20
2019-05-09T18:46:48.111Z,77.50
2019-05-09T18:48:52.336Z,78.80
2019-05-09T18:50:56.197Z,82.00
2019-05-09T18:53:00.094Z,82.60
2019-05-09T18:55:04.152Z,84.80
2019-05-09T18:57:07.996Z,87.40
2019-05-09T18:59:11.927Z,90.00
2019-05-09T19:01:15.809Z,91.40
2019-05-09T19:03:19.666Z,92.80
2019-05-09T19:05:25.758Z,94.90
2019-05-09T19:07:31.084Z,99.10
2019-05-09T19:09:34.886Z,99.00
2019-05-09T19:11:39.431Z,99.90
2019-05-09T19:13:45.235Z,99.90
2019-05-09T19:16:00.125Z,99.90
2019-05-09T19:18:32.238Z,99.90
2019-05-09T19:20:47.209Z,99.90
2019-05-09T19:22:51.060Z,99.90
2019-05-09T19:24:55.273Z,99.90
2019-05-09T19:26:59.125Z,99.90
2019-05-09T19:29:03.235Z,99.90
2019-05-09T19:31:07.265Z,99.90
2019-05-09T19:33:11.056Z,99.90
2019-05-09T19:35:14.984Z,99.90
2019-05-09T19:37:18.779Z,99.90
2019-05-09T19:39:22.645Z,99.90
2019-05-09T19:41:26.505Z,99.90
2019-05-09T19:43:30.324Z,99.90
2019-05-09T19:45:36.780Z,99.90
2019-05-09T19:47:45.878Z,99.90
2019-05-09T19:49:52.641Z,99.90
2019-05-09T19:51:56.415Z,99.90
2019-05-09T19:54:00.195Z,99.90
2019-05-09T19:56:04.070Z,99.90
2019-05-09T19:58:15.706Z,99.90
2019-05-09T20:00:19.796Z,99.90
2019-05-09T20:02:23.584Z,99.90
2019-05-09T20:04:27.456Z,99.90
2019-05-09T20:06:31.310Z,99.90
2019-05-09T20:08:35.092Z,99.90
2019-05-09T20:10:56.853Z,99.90
2019-05-09T20:13:25.548Z,99.90
2019-05-09T20:15:29.368Z,99.90
2019-05-09T20:17:33.154Z,99.90
2019-05-09T20:19:37.972Z,99.90
2019-05-09T20:21:41.745Z,99.90
2019-05-09T20:23:45.812Z,99.90
2019-05-09T20:25:49.615Z,99.90
2019-05-09T20:27:53.387Z,99.90
2019-05-09T20:29:57.323Z,99.90
2019-05-09T20:32:01.224Z,99.90
2019-05-09T20:34:05.014Z,99.90
2019-05-09T20:36:11.283Z,99.90
2019-05-09T20:38:15.435Z,99.90
2019-05-09T20:40:19.548Z,99.90
2019-05-09T20:42:23.529Z,99.90
2019-05-09T20:44:27.562Z,99.90
2019-05-09T20:46:31.636Z,99.90
2019-05-09T20:48:37.011Z,99.90
2019-05-09T20:50:44.348Z,99.90
2019-05-09T20:52:46.808Z,99.90
2019-05-09T20:54:50.759Z,99.90
2019-05-09T20:56:54.934Z,99.90
2019-05-09T20:59:05.918Z,99.90
2019-05-09T21:01:11.040Z,99.90
2019-05-09T21:03:15.437Z,99.90
2019-05-09T21:05:19.419Z,99.90
2019-05-09T21:07:23.479Z,99.90
2019-05-09T21:09:27.515Z,99.90
2019-05-09T21:11:33.967Z,99.90
2019-05-09T21:13:47.833Z,99.90
2019-05-09T21:15:43.612Z,99.90
2019-05-09T21:17:47.664Z,99.90
2019-05-09T21:19:51.625Z,99.90
2019-05-09T21:21:58.692Z,99.90
2019-05-09T21:24:02.720Z,99.90
2019-05-09T21:26:06.767Z,99.90
2019-05-09T21:28:11.019Z,99.90
2019-05-09T21:30:15.541Z,99.90
2019-05-09T21:32:19.667Z,99.90
2019-05-09T21:34:23.732Z,99.90
2019-05-09T21:36:27.548Z,99.90
2019-05-09T21:38:31.421Z,99.90
2019-05-09T21:40:35.208Z,99.90
2019-05-09T21:42:39.151Z,99.90
2019-05-09T21:44:42.970Z,99.90
2019-05-09T21:46:47.157Z,99.90
2019-05-09T21:48:50.943Z,99.90
2019-05-09T21:50:54.735Z,99.90
2019-05-09T21:52:59.124Z,99.90
2019-05-09T21:55:02.897Z,99.90
2019-05-09T21:57:06.944Z,99.90
2019-05-09T21:59:11.748Z,99.90
2019-05-09T22:01:19.035Z,99.90
2019-05-09T22:03:23.252Z,99.90
2019-05-09T22:05:27.125Z,99.90
2019-05-09T22:07:31.555Z,99.90
2019-05-09T22:09:35.677Z,99.90
2019-05-09T22:11:39.555Z,99.90
2019-05-09T22:13:43.498Z,99.90
2019-05-09T22:15:47.762Z,99.90
2019-05-09T22:17:51.612Z,99.90
2019-05-09T22:19:55.477Z,99.90
2019-05-09T22:21:59.431Z,99.90
2019-05-09T22:24:03.563Z,99.90
2019-05-09T22:26:07.495Z,99.90
2019-05-09T22:28:11.367Z,99.90
2019-05-09T22:30:15.685Z,99.90
2019-05-09T22:32:22.068Z,99.90
2019-05-09T22:34:25.272Z,99.90
2019-05-09T22:36:29.112Z,99.90
2019-05-09T22:38:32.879Z,99.90
2019-05-09T22:40:36.662Z,99.90
2019-05-09T22:42:40.783Z,99.90
2019-05-09T22:44:44.721Z,99.90
2019-05-09T22:46:48.583Z,99.90
2019-05-09T22:48:52.707Z,99.90
2019-05-09T22:50:56.498Z,99.90
2019-05-09T22:53:00.290Z,99.90
2019-05-09T22:55:04.341Z,99.90
2019-05-09T22:57:08.118Z,99.90
2019-05-09T22:59:11.889Z,99.90
2019-05-09T23:01:15.787Z,99.90
2019-05-09T23:03:19.598Z,99.90
2019-05-09T23:05:23.535Z,99.90
2019-05-09T23:07:27.379Z,99.90
2019-05-09T23:09:31.259Z,99.90
2019-05-09T23:11:35.349Z,99.90
2019-05-09T23:13:54.134Z,99.90
2019-05-09T23:15:57.904Z,99.90
2019-05-09T23:18:01.693Z,99.90
2019-05-09T23:20:07.700Z,99.90
2019-05-09T23:22:11.800Z,99.90
2019-05-09T23:24:28.212Z,99.90
2019-05-09T23:26:23.581Z,99.90
2019-05-09T23:28:27.749Z,99.90
2019-05-09T23:30:34.021Z,99.90
2019-05-09T23:32:43.378Z,99.90
2019-05-09T23:34:47.158Z,99.90
2019-05-09T23:36:51.216Z,99.90
2019-05-09T23:39:32.331Z,99.90
2019-05-09T23:41:36.114Z,99.90
2019-05-09T23:43:39.903Z,99.90
2019-05-09T23:45:43.693Z,99.90
2019-05-09T23:47:47.490Z,99.90
2019-05-09T23:49:51.498Z,99.90
2019-05-09T23:51:55.385Z,99.90
2019-05-09T23:53:58.599Z,99.90
2019-05-09T23:56:20.261Z,99.90
2019-05-09T23:58:42.090Z,99.90
